Time;durP1;ratioP1;P1;durP2;ratioP2;P2;SDS_P1;SDS_P2;PMS_P1;PMS_P2;Temp;Humidity;BMP_temperature;BMP_pressure;BME280_temperature;BME280_humidity;BME280_pressure;Samples;Min_cycle;Max_cycle;Signal;HPM_P1;HPM_P2
2021/09/22 00:00:19;;;;;;;12.40;11.20;;;10.40;99.90;;;;;;4993235;28;20516;-62
2021/09/22 00:02:45;;;;;;;12.80;11.67;;;10.20;99.90;;;;;;4993266;28;20453;-62
2021/09/22 00:05:12;;;;;;;13.07;10.80;;;10.20;99.90;;;;;;4993286;28;20822;-62
2021/09/22 00:07:38;;;;;;;12.67;11.37;;;10.30;99.90;;;;;;4993018;28;20427;-62
2021/09/22 00:10:10;;;;;;;12.63;11.23;;;10.30;99.90;;;;;;4992991;28;20542;-62
2021/09/22 00:12:35;;;;;;;11.80;10.60;;;10.30;99.90;;;;;;4992879;28;20586;-61
2021/09/22 00:15:03;;;;;;;12.60;11.50;;;10.30;99.90;;;;;;4992816;28;20431;-62
2021/09/22 00:17:29;;;;;;;12.50;11.20;;;10.20;99.90;;;;;;4992662;28;20178;-62
2021/09/22 00:19:54;;;;;;;12.90;11.00;;;10.20;99.90;;;;;;4992920;28;20434;-63
2021/09/22 00:22:20;;;;;;;12.60;11.27;;;10.20;99.90;;;;;;4992826;28;20263;-62
2021/09/22 00:24:45;;;;;;;12.57;11.37;;;10.20;99.90;;;;;;4992799;28;20187;-62
2021/09/22 00:27:11;;;;;;;12.30;11.10;;;10.10;99.90;;;;;;4992867;28;20186;-62
2021/09/22 00:29:36;;;;;;;14.03;12.70;;;10.00;99.90;;;;;;4992206;28;20207;-62
2021/09/22 00:32:02;;;;;;;12.67;11.40;;;9.90;99.90;;;;;;4992714;28;20515;-63
2021/09/22 00:34:28;;;;;;;13.50;12.20;;;10.00;99.90;;;;;;4992776;28;20219;-62
2021/09/22 00:36:53;;;;;;;13.53;12.13;;;9.90;99.90;;;;;;4992680;28;20262;-61
2021/09/22 00:39:19;;;;;;;12.50;11.30;;;10.00;99.90;;;;;;4992157;28;20223;-63
2021/09/22 00:41:44;;;;;;;13.33;11.93;;;10.00;99.90;;;;;;4992818;28;20207;-62
2021/09/22 00:44:10;;;;;;;11.90;10.70;;;10.00;99.90;;;;;;4992403;28;20187;-62
2021/09/22 00:46:36;;;;;;;13.10;11.80;;;9.90;99.90;;;;;;4992495;28;20426;-62
2021/09/22 00:49:01;;;;;;;11.90;10.53;;;9.90;99.90;;;;;;4992017;28;20194;-62
2021/09/22 00:51:27;;;;;;;14.97;10.90;;;9.90;99.90;;;;;;4992818;28;20222;-62
2021/09/22 00:53:52;;;;;;;14.13;12.73;;;9.90;99.90;;;;;;4992260;28;20214;-62
2021/09/22 00:56:23;;;;;;;13.33;11.93;;;10.00;99.90;;;;;;4992639;28;20222;-62
2021/09/22 00:58:49;;;;;;;13.40;12.10;;;10.00;99.90;;;;;;4992021;28;20183;-63
2021/09/22 01:01:14;;;;;;;12.50;11.20;;;9.90;99.90;;;;;;4987795;28;20451;-61
2021/09/22 01:03:40;;;;;;;13.33;12.03;;;9.90;99.90;;;;;;4972126;28;20172;-61
2021/09/22 01:06:05;;;;;;;12.67;11.37;;;9.90;99.90;;;;;;4985357;28;20218;-62
2021/09/22 01:08:32;;;;;;;12.33;11.03;;;10.00;99.90;;;;;;4992180;28;20629;-62
2021/09/22 01:10:58;;;;;;;13.37;11.70;;;10.00;99.90;;;;;;5007392;28;20254;-62
2021/09/22 01:13:25;;;;;;;12.87;11.57;;;9.90;99.90;;;;;;4992117;28;20462;-62
2021/09/22 01:15:50;;;;;;;13.80;12.40;;;9.80;99.90;;;;;;4992259;28;20429;-62
2021/09/22 01:18:19;;;;;;;11.63;10.43;;;9.80;99.90;;;;;;4992248;28;20865;-61
2021/09/22 01:20:48;;;;;;;12.93;11.70;;;9.80;99.90;;;;;;4992315;28;20215;-62
2021/09/22 01:23:15;;;;;;;13.90;12.20;;;9.80;99.90;;;;;;4992372;28;20425;-62
2021/09/22 01:25:43;;;;;;;12.97;11.67;;;9.90;99.90;;;;;;4991925;28;20438;-62
2021/09/22 01:28:09;;;;;;;12.27;11.00;;;9.80;99.90;;;;;;4991898;28;20434;-62
2021/09/22 01:30:35;;;;;;;12.63;11.43;;;9.80;99.90;;;;;;4992203;28;20497;-62
2021/09/22 01:33:09;;;;;;;12.43;11.03;;;9.80;99.90;;;;;;4992192;28;20494;-63
2021/09/22 01:35:38;;;;;;;14.40;11.90;;;9.70;99.90;;;;;;4991876;28;20434;-62
2021/09/22 01:38:06;;;;;;;15.60;11.47;;;9.70;99.90;;;;;;4991726;28;20439;-62
2021/09/22 01:40:32;;;;;;;13.60;11.63;;;9.70;99.90;;;;;;4992103;28;20534;-62
2021/09/22 01:42:58;;;;;;;16.10;11.30;;;9.70;99.90;;;;;;4995310;28;20865;-62
2021/09/22 01:45:23;;;;;;;13.00;11.80;;;9.70;99.90;;;;;;4991419;28;20180;-62
2021/09/22 01:47:49;;;;;;;12.20;11.00;;;9.70;99.90;;;;;;4993187;28;20441;-62
2021/09/22 01:50:18;;;;;;;13.33;12.03;;;9.60;99.90;;;;;;4995579;28;20278;-62
2021/09/22 01:52:45;;;;;;;12.33;11.13;;;9.60;99.90;;;;;;4995469;28;20202;-60
2021/09/22 01:55:12;;;;;;;12.40;10.90;;;9.60;99.90;;;;;;4995396;28;20430;-62
2021/09/22 01:57:38;;;;;;;14.00;11.87;;;9.60;99.90;;;;;;4995399;28;20475;-62
2021/09/22 02:00:06;;;;;;;14.67;12.60;;;9.60;99.90;;;;;;4995469;28;20537;-62
2021/09/22 02:02:31;;;;;;;13.50;12.10;;;9.60;99.90;;;;;;4995378;28;20180;-63
2021/09/22 02:04:58;;;;;;;15.43;13.70;;;9.60;99.90;;;;;;4995274;28;20434;-63
2021/09/22 02:07:23;;;;;;;12.27;10.97;;;9.60;99.90;;;;;;4995169;28;20543;-62
2021/09/22 02:09:49;;;;;;;13.67;12.37;;;9.50;99.90;;;;;;4994947;28;20458;-61
2021/09/22 02:12:15;;;;;;;16.83;11.80;;;9.50;99.90;;;;;;4994759;28;20545;-62
2021/09/22 02:14:40;;;;;;;13.47;11.60;;;9.50;99.90;;;;;;4995082;28;20172;-62
2021/09/22 02:17:06;;;;;;;13.30;12.00;;;9.50;99.90;;;;;;4994954;28;20180;-62
2021/09/22 02:19:31;;;;;;;13.27;12.00;;;9.50;99.90;;;;;;4994921;28;20563;-62
2021/09/22 02:21:57;;;;;;;12.73;11.40;;;9.30;99.90;;;;;;4995168;28;20206;-62
2021/09/22 02:24:24;;;;;;;13.83;12.47;;;9.20;99.90;;;;;;4994932;28;20179;-62
2021/09/22 02:26:51;;;;;;;12.30;11.07;;;9.20;99.90;;;;;;4995021;28;20167;-62
2021/09/22 02:29:20;;;;;;;12.47;11.20;;;9.30;99.90;;;;;;4994548;28;20415;-62
2021/09/22 02:31:47;;;;;;;13.77;12.27;;;9.30;99.90;;;;;;4975709;28;20424;-61
2021/09/22 02:34:13;;;;;;;13.83;11.40;;;9.30;99.90;;;;;;4975623;28;20459;-61
2021/09/22 02:36:39;;;;;;;14.53;13.07;;;9.20;99.90;;;;;;4994634;28;20430;-62
2021/09/22 02:39:05;;;;;;;14.10;12.70;;;9.20;99.90;;;;;;4994573;28;21007;-62
2021/09/22 02:41:31;;;;;;;13.70;11.90;;;9.30;99.90;;;;;;4995063;28;20498;-62
2021/09/22 02:43:57;;;;;;;13.20;11.90;;;9.30;99.90;;;;;;4994592;28;20583;-62
2021/09/22 02:46:23;;;;;;;14.10;12.60;;;9.30;99.90;;;;;;4994288;28;20427;-63
2021/09/22 02:48:49;;;;;;;15.40;13.93;;;9.30;99.90;;;;;;4994226;28;20453;-62
2021/09/22 02:51:14;;;;;;;14.13;12.73;;;9.30;99.90;;;;;;4994402;28;20533;-62
2021/09/22 02:53:40;;;;;;;15.10;13.00;;;9.10;99.90;;;;;;4994071;28;20571;-62
2021/09/22 02:56:05;;;;;;;13.63;12.33;;;9.00;99.90;;;;;;4994367;28;20182;-61
2021/09/22 02:58:31;;;;;;;16.27;12.93;;;9.10;99.90;;;;;;4994002;28;20174;-62
2021/09/22 03:00:57;;;;;;;14.70;13.33;;;9.20;99.90;;;;;;4994216;28;20242;-62
2021/09/22 03:03:23;;;;;;;14.33;12.90;;;9.10;99.90;;;;;;4994398;28;20548;-63
2021/09/22 03:05:48;;;;;;;15.00;13.43;;;9.10;99.90;;;;;;4994325;28;21043;-62
2021/09/22 03:08:14;;;;;;;16.60;15.00;;;9.10;99.90;;;;;;4993923;28;20457;-61
2021/09/22 03:10:39;;;;;;;16.27;14.40;;;9.10;99.90;;;;;;4993950;28;20199;-61
2021/09/22 03:13:05;;;;;;;18.53;14.43;;;9.20;99.90;;;;;;4994080;28;20579;-61
2021/09/22 03:15:31;;;;;;;17.70;14.47;;;9.20;99.90;;;;;;4994110;28;20896;-62
2021/09/22 03:17:56;;;;;;;15.60;13.97;;;9.20;99.90;;;;;;4993853;28;20175;-62
2021/09/22 03:20:22;;;;;;;14.30;12.83;;;9.10;99.90;;;;;;4993892;28;20290;-62
2021/09/22 03:22:47;;;;;;;15.20;13.60;;;9.00;99.90;;;;;;4994052;28;20568;-61
2021/09/22 03:25:13;;;;;;;15.60;13.50;;;8.90;99.90;;;;;;4993953;28;20679;-61
2021/09/22 03:27:39;;;;;;;16.07;13.80;;;8.90;99.90;;;;;;4993748;28;20186;-61
2021/09/22 03:30:08;;;;;;;15.03;13.33;;;9.00;99.90;;;;;;4993610;28;20842;-62
2021/09/22 03:32:34;;;;;;;16.90;14.00;;;9.00;99.90;;;;;;4993741;28;20203;-61
2021/09/22 03:34:59;;;;;;;14.80;12.83;;;9.00;99.90;;;;;;4993837;28;20979;-61
2021/09/22 03:37:25;;;;;;;16.70;12.93;;;9.00;99.90;;;;;;4993245;28;20184;-62
2021/09/22 03:39:51;;;;;;;13.87;12.50;;;8.90;99.90;;;;;;4993610;28;20278;-62
2021/09/22 03:42:16;;;;;;;16.50;14.77;;;8.90;99.90;;;;;;4993337;28;20274;-62
2021/09/22 03:44:42;;;;;;;15.50;12.80;;;9.00;99.90;;;;;;4993418;28;20168;-62
2021/09/22 03:47:07;;;;;;;14.43;12.93;;;9.00;99.90;;;;;;4993310;28;20579;-62
2021/09/22 03:49:33;;;;;;;14.40;13.00;;;9.00;99.90;;;;;;5007891;28;20195;-62
2021/09/22 03:51:58;;;;;;;13.60;12.30;;;8.80;99.90;;;;;;4993235;28;20183;-62
2021/09/22 03:54:24;;;;;;;15.03;13.27;;;8.70;99.90;;;;;;4993565;28;20198;-62
2021/09/22 03:56:49;;;;;;;14.63;12.37;;;8.80;99.90;;;;;;4993312;28;20592;-62
2021/09/22 03:59:15;;;;;;;15.57;12.03;;;8.70;99.90;;;;;;4992888;28;20234;-62
2021/09/22 04:01:41;;;;;;;17.37;15.13;;;8.70;99.90;;;;;;4993123;28;20184;-62
2021/09/22 04:04:07;;;;;;;17.40;15.33;;;8.60;99.90;;;;;;4992530;28;20176;-61
2021/09/22 04:06:32;;;;;;;16.00;14.20;;;8.50;99.90;;;;;;4992936;28;20442;-62
2021/09/22 04:08:58;;;;;;;14.40;12.90;;;8.50;99.90;;;;;;4992578;28;20198;-62
2021/09/22 04:11:24;;;;;;;16.07;13.90;;;8.70;99.90;;;;;;4992531;28;20290;-62
2021/09/22 04:13:50;;;;;;;15.67;13.30;;;8.70;99.90;;;;;;4991795;28;20202;-59
2021/09/22 04:16:15;;;;;;;16.30;14.70;;;8.80;99.90;;;;;;4993151;28;20419;-61
2021/09/22 04:18:41;;;;;;;15.53;13.93;;;8.90;99.90;;;;;;4996767;28;20168;-62
2021/09/22 04:21:06;;;;;;;16.27;14.57;;;8.90;99.90;;;;;;5005557;28;20336;-62
2021/09/22 04:23:32;;;;;;;21.53;16.27;;;8.80;99.90;;;;;;5000028;28;20175;-61
2021/09/22 04:25:57;;;;;;;16.27;14.57;;;8.90;99.90;;;;;;5012657;28;20174;-63
2021/09/22 04:28:23;;;;;;;22.83;14.70;;;8.90;99.90;;;;;;5010483;28;20178;-62
2021/09/22 04:30:48;;;;;;;17.87;14.23;;;8.80;99.90;;;;;;5005559;23;20220;-65
2021/09/22 04:33:14;;;;;;;16.03;14.43;;;8.90;99.90;;;;;;4996549;28;20210;-64
2021/09/22 04:35:40;;;;;;;17.47;15.67;;;8.90;99.90;;;;;;5003625;28;20270;-63
2021/09/22 04:38:07;;;;;;;16.37;13.43;;;8.90;99.90;;;;;;5012208;28;21124;-65
2021/09/22 04:40:34;;;;;;;14.23;12.43;;;8.80;99.90;;;;;;5022067;28;20190;-61
2021/09/22 04:43:00;;;;;;;14.37;12.93;;;8.70;99.90;;;;;;5018168;28;20444;-62
2021/09/22 04:45:26;;;;;;;15.47;13.70;;;8.70;99.90;;;;;;5012316;28;20468;-62
2021/09/22 04:47:53;;;;;;;15.90;14.33;;;8.70;99.90;;;;;;5012632;28;20429;-62
2021/09/22 04:50:20;;;;;;;16.07;14.27;;;8.70;99.90;;;;;;5023519;28;20456;-63
2021/09/22 04:52:45;;;;;;;16.60;14.80;;;8.60;99.90;;;;;;5012187;28;20981;-62
2021/09/22 04:55:11;;;;;;;19.07;14.67;;;8.50;99.90;;;;;;5023458;28;20420;-63
2021/09/22 04:57:39;;;;;;;28.23;15.50;;;8.50;99.90;;;;;;5031689;28;20181;-62
2021/09/22 05:00:06;;;;;;;16.47;14.77;;;8.60;99.90;;;;;;5031800;28;20510;-61
2021/09/22 05:02:31;;;;;;;19.27;16.00;;;8.60;99.90;;;;;;5025226;28;20429;-65
2021/09/22 05:04:57;;;;;;;17.60;14.97;;;8.70;99.90;;;;;;5009921;28;20422;-63
2021/09/22 05:07:22;;;;;;;19.07;14.80;;;8.70;99.90;;;;;;4992231;28;20176;-63
2021/09/22 05:09:48;;;;;;;17.50;15.50;;;8.70;99.90;;;;;;4992483;28;20289;-62
2021/09/22 05:12:13;;;;;;;15.73;13.90;;;8.70;99.90;;;;;;5008443;28;20519;-61
2021/09/22 05:14:39;;;;;;;19.13;15.40;;;8.70;99.90;;;;;;5007095;28;20836;-62
2021/09/22 05:17:04;;;;;;;16.10;14.40;;;8.70;99.90;;;;;;5015942;28;20222;-62
2021/09/22 05:19:30;;;;;;;16.57;14.77;;;8.60;99.90;;;;;;5015565;28;20536;-61
2021/09/22 05:21:55;;;;;;;18.87;15.00;;;8.70;99.90;;;;;;5015918;28;20175;-63
2021/09/22 05:24:22;;;;;;;22.50;15.00;;;8.70;99.90;;;;;;5015948;28;20175;-63
2021/09/22 05:26:47;;;;;;;16.80;13.83;;;8.70;99.90;;;;;;5015886;28;20196;-62
2021/09/22 05:29:13;;;;;;;15.37;13.73;;;8.70;99.90;;;;;;5015613;28;20475;-62
2021/09/22 05:31:38;;;;;;;17.00;15.30;;;8.70;99.90;;;;;;5015697;28;20214;-63
2021/09/22 05:34:04;;;;;;;17.90;16.10;;;8.70;99.90;;;;;;5015517;28;20213;-62
2021/09/22 05:36:29;;;;;;;19.97;17.30;;;8.60;99.90;;;;;;4999630;28;20180;-62
2021/09/22 05:38:55;;;;;;;18.07;15.83;;;8.40;99.90;;;;;;4995693;28;20171;-63
2021/09/22 05:41:20;;;;;;;18.17;15.47;;;8.40;99.90;;;;;;4995930;28;20195;-63
2021/09/22 05:43:46;;;;;;;19.07;16.30;;;8.50;99.90;;;;;;5006915;28;20210;-62
2021/09/22 05:46:12;;;;;;;25.33;17.67;;;8.50;99.90;;;;;;5015519;28;20225;-63
2021/09/22 05:48:37;;;;;;;20.17;15.00;;;8.70;99.90;;;;;;5015104;28;20167;-62
2021/09/22 05:51:04;;;;;;;17.70;15.40;;;8.90;99.90;;;;;;5015640;28;20222;-62
2021/09/22 05:53:30;;;;;;;21.30;15.43;;;9.10;99.90;;;;;;5015464;28;20175;-62
2021/09/22 05:55:56;;;;;;;20.67;17.43;;;9.20;99.90;;;;;;5014308;28;20422;-63
2021/09/22 05:58:21;;;;;;;18.50;16.50;;;9.30;99.90;;;;;;5003014;28;20186;-63
2021/09/22 06:00:47;;;;;;;18.67;16.20;;;9.30;99.90;;;;;;5015155;28;20190;-63
2021/09/22 06:03:13;;;;;;;18.43;15.47;;;9.40;99.90;;;;;;5003556;28;20203;-62
2021/09/22 06:05:39;;;;;;;21.27;16.03;;;9.40;99.90;;;;;;5017654;28;20198;-63
2021/09/22 06:08:08;;;;;;;20.10;14.97;;;9.40;99.90;;;;;;5024351;28;20174;-62
2021/09/22 06:10:36;;;;;;;18.77;16.10;;;9.70;99.90;;;;;;5010167;28;20277;-62
2021/09/22 06:13:03;;;;;;;18.33;15.73;;;9.80;99.90;;;;;;5016709;28;20436;-63
2021/09/22 06:15:28;;;;;;;17.93;15.97;;;10.00;99.90;;;;;;5013357;28;20429;-63
2021/09/22 06:17:54;;;;;;;19.80;16.40;;;10.20;99.90;;;;;;5003402;28;20949;-63
2021/09/22 06:20:19;;;;;;;17.93;15.17;;;10.20;99.90;;;;;;4999813;28;20240;-62
2021/09/22 06:22:45;;;;;;;20.07;16.67;;;10.30;99.90;;;;;;5008058;28;20207;-63
2021/09/22 06:25:13;;;;;;;19.50;15.13;;;10.40;99.90;;;;;;5008370;28;20187;-63
2021/09/22 06:27:38;;;;;;;22.30;16.50;;;10.60;99.90;;;;;;5002330;28;20172;-63
2021/09/22 06:30:05;;;;;;;22.17;17.10;;;10.80;99.90;;;;;;5015228;28;20476;-61
2021/09/22 06:32:30;;;;;;;22.00;17.40;;;10.90;99.90;;;;;;5013757;28;20593;-62
2021/09/22 06:34:56;;;;;;;17.43;14.93;;;11.10;99.90;;;;;;5006615;28;21223;-63
2021/09/22 06:37:21;;;;;;;23.20;16.27;;;11.30;99.90;;;;;;4995864;28;20187;-62
2021/09/22 06:39:47;;;;;;;18.37;16.47;;;11.40;99.90;;;;;;4996162;28;20200;-60
2021/09/22 06:42:12;;;;;;;21.47;16.50;;;11.60;99.90;;;;;;4983880;28;20179;-62
2021/09/22 06:44:38;;;;;;;23.50;16.93;;;11.90;99.90;;;;;;4981700;28;20179;-62
2021/09/22 06:47:04;;;;;;;20.97;17.50;;;12.10;99.90;;;;;;5002233;28;20211;-61
2021/09/22 06:49:30;;;;;;;20.37;18.17;;;12.40;99.90;;;;;;5010457;28;20594;-62
2021/09/22 06:51:55;;;;;;;19.93;17.83;;;12.50;99.90;;;;;;5002528;28;20426;-64
2021/09/22 06:54:21;;;;;;;21.93;18.23;;;12.50;99.90;;;;;;4999806;28;20207;-62
2021/09/22 06:56:47;;;;;;;19.70;17.60;;;12.70;99.90;;;;;;4997922;28;20184;-62
2021/09/22 06:59:12;;;;;;;22.50;18.70;;;12.80;99.90;;;;;;4998079;28;20633;-62
2021/09/22 07:01:40;;;;;;;21.53;18.23;;;12.90;99.90;;;;;;4994460;28;20478;-62
2021/09/22 07:04:06;;;;;;;25.33;20.23;;;13.20;99.90;;;;;;5003856;28;20206;-63
2021/09/22 07:06:31;;;;;;;22.80;18.00;;;13.20;99.90;;;;;;4995227;28;20804;-62
2021/09/22 07:08:57;;;;;;;26.20;18.60;;;13.40;99.90;;;;;;4987561;28;20179;-62
2021/09/22 07:11:22;;;;;;;22.60;19.40;;;13.50;99.90;;;;;;4995907;28;20278;-63
2021/09/22 07:13:48;;;;;;;25.03;19.47;;;13.60;99.90;;;;;;4994455;28;20180;-62
2021/09/22 07:16:15;;;;;;;23.67;19.00;;;13.80;99.90;;;;;;5005406;28;20179;-62
2021/09/22 07:18:41;;;;;;;23.07;20.60;;;13.90;99.90;;;;;;4998658;28;20174;-63
2021/09/22 07:21:07;;;;;;;24.47;20.70;;;14.10;99.90;;;;;;5001458;28;21077;-61
2021/09/22 07:23:32;;;;;;;20.83;18.53;;;14.20;99.90;;;;;;5013006;28;20553;-63
2021/09/22 07:25:58;;;;;;;21.40;18.33;;;14.30;99.90;;;;;;5003761;28;20555;-63
2021/09/22 07:28:23;;;;;;;22.00;18.87;;;14.40;99.90;;;;;;5001702;28;20255;-62
2021/09/22 07:30:49;;;;;;;21.07;18.87;;;14.60;99.90;;;;;;5003641;28;20218;-63
2021/09/22 07:33:15;;;;;;;20.60;18.40;;;14.70;99.90;;;;;;4986664;28;20643;-63
2021/09/22 07:35:41;;;;;;;21.97;19.10;;;14.90;99.90;;;;;;4999844;28;20430;-62
2021/09/22 07:38:06;;;;;;;25.27;22.60;;;14.90;99.90;;;;;;4998242;28;20186;-63
2021/09/22 07:40:32;;;;;;;21.53;19.30;;;14.90;99.90;;;;;;5000626;28;20203;-63
2021/09/22 07:42:58;;;;;;;21.07;18.87;;;14.90;99.90;;;;;;5001398;28;20207;-63
2021/09/22 07:45:24;;;;;;;21.27;19.13;;;15.10;99.90;;;;;;4996792;28;20442;-60
2021/09/22 07:47:50;;;;;;;21.70;19.20;;;15.20;99.90;;;;;;4998949;28;20599;-60
2021/09/22 07:50:15;;;;;;;21.67;18.23;;;15.40;99.90;;;;;;5009946;28;20529;-60
2021/09/22 07:52:41;;;;;;;27.30;19.30;;;15.50;99.90;;;;;;4999025;28;20197;-60
2021/09/22 07:55:09;;;;;;;20.30;18.20;;;15.60;99.90;;;;;;5013014;28;20209;-60
2021/09/22 07:57:35;;;;;;;24.87;18.23;;;15.70;99.90;;;;;;4999602;28;20183;-61
2021/09/22 08:00:00;;;;;;;20.13;18.13;;;15.80;99.90;;;;;;5008349;28;21009;-60
2021/09/22 08:02:26;;;;;;;20.10;18.03;;;15.70;99.90;;;;;;5012340;28;20214;-62
2021/09/22 08:04:51;;;;;;;19.90;17.80;;;16.00;99.90;;;;;;5007614;28;20187;-58
2021/09/22 08:07:18;;;;;;;23.30;18.80;;;16.30;99.90;;;;;;4993210;28;20657;-61
2021/09/22 08:09:44;;;;;;;20.03;17.77;;;16.70;99.90;;;;;;5012536;28;20567;-60
2021/09/22 08:12:10;;;;;;;20.40;18.10;;;16.90;99.90;;;;;;4996238;28;20517;-61
2021/09/22 08:14:36;;;;;;;20.03;18.03;;;17.20;99.90;;;;;;5005655;28;20525;-61
2021/09/22 08:17:02;;;;;;;19.73;17.67;;;17.40;99.90;;;;;;5004874;28;20167;-60
2021/09/22 08:19:28;;;;;;;18.23;16.53;;;17.60;99.90;;;;;;5000365;28;20442;-62
2021/09/22 08:21:54;;;;;;;19.60;17.30;;;17.90;99.90;;;;;;4995376;28;20258;-60
2021/09/22 08:24:20;;;;;;;18.80;16.80;;;18.20;99.90;;;;;;5012059;28;20206;-60
2021/09/22 08:26:45;;;;;;;19.20;17.30;;;18.20;99.90;;;;;;4997981;28;20457;-62
2021/09/22 08:29:12;;;;;;;19.90;17.90;;;18.00;99.90;;;;;;5002905;28;20454;-62
2021/09/22 08:31:37;;;;;;;19.73;17.87;;;18.20;99.90;;;;;;4997689;28;20208;-62
2021/09/22 08:34:03;;;;;;;19.60;17.67;;;18.40;99.90;;;;;;5005958;28;20927;-62
2021/09/22 08:36:28;;;;;;;19.23;17.40;;;18.90;99.90;;;;;;5000434;28;20238;-63
2021/09/22 08:38:54;;;;;;;21.60;19.70;;;19.00;99.90;;;;;;5007864;28;20210;-62
2021/09/22 08:41:20;;;;;;;19.77;17.90;;;19.30;99.90;;;;;;5001365;28;20676;-61
2021/09/22 08:43:46;;;;;;;15.40;13.90;;;19.60;99.90;;;;;;4994214;28;20234;-61
2021/09/22 08:46:12;;;;;;;14.80;13.30;;;19.80;99.90;;;;;;5008487;28;20182;-60
2021/09/22 08:48:40;;;;;;;17.10;15.50;;;19.30;99.90;;;;;;5018941;28;20430;-60
2021/09/22 08:51:05;;;;;;;16.50;14.93;;;19.90;99.90;;;;;;4999021;28;20445;-61
2021/09/22 08:53:31;;;;;;;13.33;12.13;;;20.20;99.90;;;;;;5000087;28;20519;-61
2021/09/22 08:55:56;;;;;;;13.87;12.77;;;20.70;99.90;;;;;;5002628;28;20670;-61
2021/09/22 08:58:22;;;;;;;12.63;11.47;;;21.20;99.90;;;;;;4991902;28;20291;-61
2021/09/22 09:00:48;;;;;;;12.30;11.37;;;21.20;98.80;;;;;;4993499;28;20207;-62
2021/09/22 09:03:34;;;;;;;11.40;10.50;;;21.30;98.00;;;;;;5011553;28;20234;-61
2021/09/22 09:06:25;;;;;;;12.90;11.73;;;21.40;97.50;;;;;;5008972;28;20173;-61
2021/09/22 09:08:55;;;;;;;12.80;11.70;;;22.20;96.80;;;;;;4992485;28;20939;-61
2021/09/22 09:11:44;;;;;;;13.53;12.27;;;23.00;96.00;;;;;;5010506;28;20962;-63
2021/09/22 09:14:15;;;;;;;13.47;11.90;;;23.40;94.50;;;;;;4993122;28;20537;-61
2021/09/22 09:16:44;;;;;;;12.50;11.40;;;24.00;92.80;;;;;;4996724;28;20453;-62
2021/09/22 09:19:14;;;;;;;12.63;11.63;;;24.90;91.80;;;;;;5007868;28;20529;-62
2021/09/22 09:22:05;;;;;;;12.70;11.70;;;24.70;89.00;;;;;;5003909;28;20838;-61
2021/09/22 09:24:37;;;;;;;12.50;11.50;;;24.10;86.90;;;;;;5005064;28;20462;-61
2021/09/22 09:27:30;;;;;;;13.67;12.47;;;23.80;88.70;;;;;;4993407;28;20469;-61
2021/09/22 09:29:56;;;;;;;12.13;11.13;;;23.10;89.20;;;;;;5003617;28;20458;-61
2021/09/22 09:32:25;;;;;;;11.77;10.67;;;22.10;90.60;;;;;;5010935;28;20460;-61
2021/09/22 09:35:07;;;;;;;12.30;11.30;;;21.80;90.40;;;;;;5004397;28;20518;-61
2021/09/22 09:37:41;;;;;;;11.10;10.00;;;22.30;90.10;;;;;;5007575;28;20434;-63
2021/09/22 09:40:25;;;;;;;10.27;9.37;;;22.10;90.80;;;;;;4994771;28;20837;-63
2021/09/22 09:42:57;;;;;;;10.50;9.60;;;23.20;90.00;;;;;;4992425;28;20453;-61
2021/09/22 09:45:24;;;;;;;11.57;10.57;;;23.90;88.10;;;;;;5003191;28;20821;-62
2021/09/22 09:48:04;;;;;;;11.00;10.20;;;24.00;85.80;;;;;;5008750;28;20476;-62
2021/09/22 09:50:35;;;;;;;10.33;9.43;;;24.40;87.20;;;;;;5008731;28;20821;-61
2021/09/22 09:53:01;;;;;;;9.70;8.80;;;25.40;83.10;;;;;;5002595;28;20833;-61
2021/09/22 09:55:28;;;;;;;11.10;10.07;;;26.30;80.70;;;;;;5003473;28;20524;-62
2021/09/22 09:57:55;;;;;;;10.67;9.67;;;26.60;80.00;;;;;;5010911;28;20178;-62
2021/09/22 10:00:24;;;;;;;11.27;8.73;;;27.50;73.70;;;;;;4993162;28;20556;-63
2021/09/22 10:02:53;;;;;;;12.20;11.27;;;27.70;70.70;;;;;;4999643;28;20488;-62
2021/09/22 10:05:19;;;;;;;8.73;8.03;;;28.40;69.00;;;;;;5005042;28;20520;-61
2021/09/22 10:07:48;;;;;;;8.60;7.90;;;28.50;66.20;;;;;;5007909;28;20518;-61
2021/09/22 10:10:15;;;;;;;8.87;8.07;;;29.60;63.70;;;;;;4996241;28;20196;-62
2021/09/22 10:12:42;;;;;;;9.37;8.67;;;30.40;60.70;;;;;;4995400;28;20456;-62
2021/09/22 10:15:09;;;;;;;8.60;7.90;;;28.80;58.00;;;;;;5011833;28;20513;-61
2021/09/22 10:17:36;;;;;;;8.50;7.90;;;28.20;60.00;;;;;;5005192;28;20460;-62
2021/09/22 10:20:03;;;;;;;7.87;7.27;;;29.00;59.50;;;;;;5005760;28;20451;-61
2021/09/22 10:22:28;;;;;;;8.10;7.50;;;29.40;59.40;;;;;;4999384;28;20540;-61
2021/09/22 10:24:55;;;;;;;8.13;7.43;;;29.20;56.90;;;;;;5014257;28;20430;-62
2021/09/22 10:27:21;;;;;;;7.67;6.97;;;29.40;57.30;;;;;;4995225;28;20171;-62
2021/09/22 10:29:59;;;;;;;9.40;7.23;;;28.40;57.90;;;;;;4977706;28;20451;-62
2021/09/22 10:32:41;;;;;;;7.87;7.27;;;28.50;58.90;;;;;;5013843;28;20421;-63
2021/09/22 10:35:24;;;;;;;7.03;6.53;;;29.80;58.30;;;;;;5005399;28;21009;-63
2021/09/22 10:37:55;;;;;;;7.63;7.03;;;31.00;56.00;;;;;;5009356;28;20433;-63
2021/09/22 10:40:47;;;;;;;6.70;6.20;;;30.70;55.40;;;;;;5002998;28;20497;-63
2021/09/22 10:43:15;;;;;;;8.93;8.23;;;31.10;54.30;;;;;;5002618;28;20959;-62
2021/09/22 10:46:08;;;;;;;7.47;6.87;;;31.20;54.20;;;;;;4982881;28;20495;-64
2021/09/22 10:48:36;;;;;;;6.83;6.33;;;31.10;53.60;;;;;;4994704;28;20799;-63
2021/09/22 10:51:04;;;;;;;7.53;6.97;;;31.10;52.80;;;;;;4998279;28;21038;-63
2021/09/22 10:53:33;;;;;;;7.67;7.13;;;31.20;53.10;;;;;;5006479;28;20441;-63
2021/09/22 10:56:20;;;;;;;7.17;6.60;;;31.60;52.50;;;;;;5003968;28;20437;-63
2021/09/22 10:58:46;;;;;;;7.20;6.60;;;31.50;51.60;;;;;;5005616;28;20437;-62
2021/09/22 11:01:20;;;;;;;8.20;7.60;;;30.70;53.60;;;;;;4998854;28;20467;-63
2021/09/22 11:03:46;;;;;;;7.83;7.20;;;31.60;51.90;;;;;;5007993;28;20182;-63
2021/09/22 11:06:42;;;;;;;6.20;5.77;;;32.20;50.50;;;;;;5006334;28;20962;-63
2021/09/22 11:09:10;;;;;;;6.10;5.57;;;34.10;48.40;;;;;;5008156;28;20265;-62
2021/09/22 11:14:46;;;;;;;5.50;5.10;;;34.20;46.30;;;;;;4997048;28;20501;-63
2021/09/22 11:17:14;;;;;;;5.77;5.30;;;34.10;46.10;;;;;;4989813;28;20445;-63
2021/09/22 11:19:46;;;;;;;5.60;5.07;;;34.80;44.90;;;;;;5003410;28;20602;-63
2021/09/22 11:22:15;;;;;;;6.07;5.10;;;33.90;45.50;;;;;;4999242;28;20433;-63
2021/09/22 11:24:41;;;;;;;13.53;12.50;;;33.50;44.50;;;;;;5001009;28;20453;-63
2021/09/22 11:27:10;;;;;;;5.83;5.37;;;34.20;44.60;;;;;;5006479;28;20464;-62
2021/09/22 11:29:51;;;;;;;6.60;6.00;;;34.20;44.50;;;;;;4980743;28;20521;-63
2021/09/22 11:32:35;;;;;;;5.10;4.70;;;33.80;44.30;;;;;;5001149;28;20532;-63
2021/09/22 11:35:02;;;;;;;5.50;5.10;;;33.10;43.90;;;;;;4999118;28;20442;-63
2021/09/22 11:37:46;;;;;;;6.47;5.40;;;32.70;45.10;;;;;;4995765;28;20423;-63
2021/09/22 11:40:25;;;;;;;5.40;4.93;;;33.40;44.60;;;;;;5005730;28;20451;-63
2021/09/22 11:43:14;;;;;;;6.10;5.60;;;34.70;43.50;;;;;;4997816;28;20441;-63
2021/09/22 11:45:51;;;;;;;6.27;5.77;;;35.40;42.10;;;;;;5004029;28;20806;-63
2021/09/22 11:48:29;;;;;;;5.23;4.73;;;36.10;41.20;;;;;;5003736;28;20483;-63
2021/09/22 11:50:55;;;;;;;5.20;4.80;;;36.60;40.40;;;;;;5004663;28;20860;-63
2021/09/22 11:53:23;;;;;;;4.20;3.90;;;37.10;40.20;;;;;;5009854;28;20494;-63
2021/09/22 11:55:50;;;;;;;4.00;3.70;;;38.00;38.80;;;;;;5008712;28;20183;-63
2021/09/22 11:58:21;;;;;;;4.47;4.17;;;37.50;37.50;;;;;;4999419;28;20472;-63
2021/09/22 12:00:53;;;;;;;4.70;4.30;;;37.50;37.00;;;;;;5004715;28;20477;-63
2021/09/22 12:03:22;;;;;;;4.63;4.33;;;37.10;37.50;;;;;;4996620;28;20462;-63
2021/09/22 12:06:02;;;;;;;4.13;3.63;;;36.00;37.40;;;;;;4997343;28;20438;-63
2021/09/22 12:08:32;;;;;;;4.73;4.43;;;35.40;37.80;;;;;;5002822;28;20517;-63
2021/09/22 12:10:58;;;;;;;5.43;4.80;;;35.50;38.30;;;;;;5000098;28;20450;-63
2021/09/22 12:13:24;;;;;;;4.70;4.30;;;34.30;38.20;;;;;;5008588;28;20457;-63
2021/09/22 12:15:54;;;;;;;4.00;3.70;;;33.70;38.80;;;;;;5005576;28;20457;-63
2021/09/22 12:18:19;;;;;;;4.33;3.97;;;34.00;39.50;;;;;;5003229;28;20259;-63
2021/09/22 12:20:45;;;;;;;5.03;4.67;;;34.20;38.80;;;;;;5002532;28;20525;-63
2021/09/22 12:23:11;;;;;;;4.20;3.90;;;33.30;39.40;;;;;;4997855;28;20673;-63
2021/09/22 12:25:37;;;;;;;4.50;4.20;;;31.60;40.60;;;;;;5007485;28;20525;-63
2021/09/22 12:28:03;;;;;;;4.27;3.97;;;31.20;41.80;;;;;;5001573;28;20639;-63
2021/09/22 12:30:34;;;;;;;4.10;3.80;;;31.00;41.60;;;;;;5002085;28;20217;-63
2021/09/22 12:33:06;;;;;;;4.03;3.63;;;31.50;41.30;;;;;;4997949;28;20512;-63
2021/09/22 12:35:37;;;;;;;4.63;4.13;;;31.40;41.30;;;;;;5001622;28;20437;-62
2021/09/22 12:38:05;;;;;;;4.00;3.70;;;31.60;41.50;;;;;;5004404;28;20434;-63
2021/09/22 12:40:35;;;;;;;3.60;3.33;;;31.80;41.70;;;;;;4984811;28;20446;-63